Terminal Aerodrome Forecast
Issued by NWS Shreveport, LA

Home | Current Version | Previous Version | Text Only | Print | Product List | Glossary On
Versions: 1 2 3 4 5 6 7 8 9 10 11 12 13 14
574
FTUS44 KSHV 101120
TAFMLU
TAF
KMLU 101120Z 1012/1112 32003KT P6SM SKC
     FM101600 28004KT P6SM SKC
     FM102100 22008KT P6SM SKC
     FM110000 19006KT P6SM SKC=

USA.gov is the U.S. government's official web portal to all federal, state and local government web resources and services.